Terminal Aerodrome Forecast
Issued by NWS

Home | Current Version | Previous Version | Text Only | Print | Product List | Glossary On
Versions: 1 2 3 4 5 6 7 8 9 10 11 12 13 14 15 16
136
FTUS45 KPSR 292326
TAFBLH
TAF
KBLH 292326Z 3000/3024 23012KT P6SM FEW110
     FM301000 22006KT P6SM SKC
     FM301900 33009KT P6SM BKN080
     FM302100 33009KT P6SM VCTS BKN090CB=

USA.gov is the U.S. government's official web portal to all federal, state and local government web resources and services.